sensor_id;sensor_type;location;lat;lon;timestamp;temperature;humidity
22984;DHT22;11658;48.908;9.140;2023-06-10T04:05:25;16.60;99.90
22984;DHT22;11658;48.908;9.140;2023-06-10T04:07:50;16.60;99.90
22984;DHT22;11658;48.908;9.140;2023-06-10T04:10:16;16.60;99.90
22984;DHT22;11658;48.908;9.140;2023-06-10T04:12:41;16.60;99.90
22984;DHT22;11658;48.908;9.140;2023-06-10T04:15:08;16.60;99.90
22984;DHT22;11658;48.908;9.140;2023-06-10T04:17:34;16.60;99.90
22984;DHT22;11658;48.908;9.140;2023-06-10T04:20:00;16.60;99.90
22984;DHT22;11658;48.908;9.140;2023-06-10T04:22:26;16.60;99.90
22984;DHT22;11658;48.908;9.140;2023-06-10T04:24:52;16.60;99.90
22984;DHT22;11658;48.908;9.140;2023-06-10T04:27:17;16.70;99.90
22984;DHT22;11658;48.908;9.140;2023-06-10T04:29:43;17.50;99.90
22984;DHT22;11658;48.908;9.140;2023-06-10T04:32:09;19.30;99.90
22984;DHT22;11658;48.908;9.140;2023-06-10T04:34:34;21.30;99.90
22984;DHT22;11658;48.908;9.140;2023-06-10T04:37:00;22.90;99.90
22984;DHT22;11658;48.908;9.140;2023-06-10T04:39:26;24.30;99.90
22984;DHT22;11658;48.908;9.140;2023-06-10T04:41:52;25.40;99.90
22984;DHT22;11658;48.908;9.140;2023-06-10T04:44:17;26.50;99.90
22984;DHT22;11658;48.908;9.140;2023-06-10T04:46:44;27.50;99.90
22984;DHT22;11658;48.908;9.140;2023-06-10T04:49:09;28.40;99.90
22984;DHT22;11658;48.908;9.140;2023-06-10T04:51:35;29.10;99.90
22984;DHT22;11658;48.908;9.140;2023-06-10T04:54:01;29.80;99.90
22984;DHT22;11658;48.908;9.140;2023-06-10T04:56:30;30.30;99.90
22984;DHT22;11658;48.908;9.140;2023-06-10T04:58:56;30.80;99.90
22984;DHT22;11658;48.908;9.140;2023-06-10T05:01:22;31.40;99.90
22984;DHT22;11658;48.908;9.140;2023-06-10T05:03:48;31.80;99.90
22984;DHT22;11658;48.908;9.140;2023-06-10T05:06:13;30.70;99.90
22984;DHT22;11658;48.908;9.140;2023-06-10T05:08:39;30.50;99.90
22984;DHT22;11658;48.908;9.140;2023-06-10T05:11:05;30.00;99.90
22984;DHT22;11658;48.908;9.140;2023-06-10T05:13:31;30.70;99.90
22984;DHT22;11658;48.908;9.140;2023-06-10T05:15:57;31.60;99.90
22984;DHT22;11658;48.908;9.140;2023-06-10T05:18:22;32.40;99.10
22984;DHT22;11658;48.908;9.140;2023-06-10T05:20:48;32.80;97.90
22984;DHT22;11658;48.908;9.140;2023-06-10T05:23:14;33.10;96.70
22984;DHT22;11658;48.908;9.140;2023-06-10T05:25:40;32.70;96.20
22984;DHT22;11658;48.908;9.140;2023-06-10T05:28:07;31.90;96.10
22984;DHT22;11658;48.908;9.140;2023-06-10T05:30:35;31.00;96.90
22984;DHT22;11658;48.908;9.140;2023-06-10T05:33:01;30.50;97.80
22984;DHT22;11658;48.908;9.140;2023-06-10T05:35:27;30.40;97.90
22984;DHT22;11658;48.908;9.140;2023-06-10T05:37:52;30.20;98.00
22984;DHT22;11658;48.908;9.140;2023-06-10T05:40:18;30.30;98.10
22984;DHT22;11658;48.908;9.140;2023-06-10T05:42:44;31.00;97.30
22984;DHT22;11658;48.908;9.140;2023-06-10T05:45:10;31.80;97.10
22984;DHT22;11658;48.908;9.140;2023-06-10T05:47:35;33.10;96.60
22984;DHT22;11658;48.908;9.140;2023-06-10T05:50:01;34.00;94.50
22984;DHT22;11658;48.908;9.140;2023-06-10T05:52:27;34.30;93.50
22984;DHT22;11658;48.908;9.140;2023-06-10T05:54:53;33.30;93.70
22984;DHT22;11658;48.908;9.140;2023-06-10T05:57:19;32.50;94.40
22984;DHT22;11658;48.908;9.140;2023-06-10T05:59:45;32.10;95.10
22984;DHT22;11658;48.908;9.140;2023-06-10T06:02:10;32.30;94.40
22984;DHT22;11658;48.908;9.140;2023-06-10T06:04:36;32.90;94.30
22984;DHT22;11658;48.908;9.140;2023-06-10T06:07:02;33.40;93.20
22984;DHT22;11658;48.908;9.140;2023-06-10T06:09:27;33.60;92.90
22984;DHT22;11658;48.908;9.140;2023-06-10T06:11:53;32.60;93.20
22984;DHT22;11658;48.908;9.140;2023-06-10T06:14:18;31.60;94.10
22984;DHT22;11658;48.908;9.140;2023-06-10T06:16:44;32.10;94.30
22984;DHT22;11658;48.908;9.140;2023-06-10T06:19:09;32.00;94.20
22984;DHT22;11658;48.908;9.140;2023-06-10T06:21:36;31.90;94.60
22984;DHT22;11658;48.908;9.140;2023-06-10T06:24:02;32.30;94.40
22984;DHT22;11658;48.908;9.140;2023-06-10T06:26:27;31.90;94.50
22984;DHT22;11658;48.908;9.140;2023-06-10T06:28:53;31.40;94.80
22984;DHT22;11658;48.908;9.140;2023-06-10T06:31:19;32.40;94.60
22984;DHT22;11658;48.908;9.140;2023-06-10T06:33:44;32.70;94.10
22984;DHT22;11658;48.908;9.140;2023-06-10T06:36:10;34.10;93.20
22984;DHT22;11658;48.908;9.140;2023-06-10T06:38:36;34.10;92.20
22984;DHT22;11658;48.908;9.140;2023-06-10T06:41:01;33.00;92.20
22984;DHT22;11658;48.908;9.140;2023-06-10T06:43:29;30.60;94.20
22984;DHT22;11658;48.908;9.140;2023-06-10T06:45:56;28.90;96.50
22984;DHT22;11658;48.908;9.140;2023-06-10T06:48:22;28.90;96.90
22984;DHT22;11658;48.908;9.140;2023-06-10T06:50:48;27.50;98.10
22984;DHT22;11658;48.908;9.140;2023-06-10T06:53:13;26.40;99.90
22984;DHT22;11658;48.908;9.140;2023-06-10T06:55:39;25.20;99.90
22984;DHT22;11658;48.908;9.140;2023-06-10T06:58:04;24.10;99.90
22984;DHT22;11658;48.908;9.140;2023-06-10T07:00:30;23.50;99.90
22984;DHT22;11658;48.908;9.140;2023-06-10T07:02:56;23.10;99.90
22984;DHT22;11658;48.908;9.140;2023-06-10T07:05:23;22.60;99.90
22984;DHT22;11658;48.908;9.140;2023-06-10T07:07:48;22.40;99.90
22984;DHT22;11658;48.908;9.140;2023-06-10T07:10:23;22.40;99.90
22984;DHT22;11658;48.908;9.140;2023-06-10T07:12:49;22.60;99.90
22984;DHT22;11658;48.908;9.140;2023-06-10T07:15:14;22.40;99.90
22984;DHT22;11658;48.908;9.140;2023-06-10T07:17:40;22.20;99.90
22984;DHT22;11658;48.908;9.140;2023-06-10T07:20:06;22.30;99.90
22984;DHT22;11658;48.908;9.140;2023-06-10T07:22:32;22.40;99.90
22984;DHT22;11658;48.908;9.140;2023-06-10T07:24:57;22.50;99.90
22984;DHT22;11658;48.908;9.140;2023-06-10T07:27:23;22.60;99.90
22984;DHT22;11658;48.908;9.140;2023-06-10T07:29:49;22.70;99.90
22984;DHT22;11658;48.908;9.140;2023-06-10T07:32:14;22.70;99.90
22984;DHT22;11658;48.908;9.140;2023-06-10T07:34:40;22.50;99.90
22984;DHT22;11658;48.908;9.140;2023-06-10T07:37:05;22.60;99.90
22984;DHT22;11658;48.908;9.140;2023-06-10T07:39:31;22.60;99.90
22984;DHT22;11658;48.908;9.140;2023-06-10T07:41:57;22.50;99.90
22984;DHT22;11658;48.908;9.140;2023-06-10T07:44:23;22.50;99.90
22984;DHT22;11658;48.908;9.140;2023-06-10T07:46:49;22.40;99.90
22984;DHT22;11658;48.908;9.140;2023-06-10T07:49:14;22.30;99.90
22984;DHT22;11658;48.908;9.140;2023-06-10T07:51:40;22.40;99.90
22984;DHT22;11658;48.908;9.140;2023-06-10T07:54:06;22.50;99.90
22984;DHT22;11658;48.908;9.140;2023-06-10T07:56:31;22.70;99.90
22984;DHT22;11658;48.908;9.140;2023-06-10T07:58:57;22.80;99.90
22984;DHT22;11658;48.908;9.140;2023-06-10T08:01:23;22.90;99.90
22984;DHT22;11658;48.908;9.140;2023-06-10T08:03:49;22.90;99.90
22984;DHT22;11658;48.908;9.140;2023-06-10T08:06:15;22.80;99.90
22984;DHT22;11658;48.908;9.140;2023-06-10T08:08:42;23.00;99.90
22984;DHT22;11658;48.908;9.140;2023-06-10T08:11:13;23.00;99.90
22984;DHT22;11658;48.908;9.140;2023-06-10T08:13:38;22.90;99.90
22984;DHT22;11658;48.908;9.140;2023-06-10T08:16:05;23.00;99.90
22984;DHT22;11658;48.908;9.140;2023-06-10T08:18:31;23.10;99.90
22984;DHT22;11658;48.908;9.140;2023-06-10T08:20:57;23.10;99.90
22984;DHT22;11658;48.908;9.140;2023-06-10T08:23:22;23.10;99.90
22984;DHT22;11658;48.908;9.140;2023-06-10T08:25:48;23.00;99.90
22984;DHT22;11658;48.908;9.140;2023-06-10T08:28:14;23.10;99.90
22984;DHT22;11658;48.908;9.140;2023-06-10T08:30:40;23.20;99.90
22984;DHT22;11658;48.908;9.140;2023-06-10T08:33:05;23.20;99.90
22984;DHT22;11658;48.908;9.140;2023-06-10T08:35:31;23.30;99.90
22984;DHT22;11658;48.908;9.140;2023-06-10T08:37:57;23.60;99.90
22984;DHT22;11658;48.908;9.140;2023-06-10T08:40:22;23.70;99.90
22984;DHT22;11658;48.908;9.140;2023-06-10T08:43:07;23.60;99.90
22984;DHT22;11658;48.908;9.140;2023-06-10T08:45:35;23.90;99.90
22984;DHT22;11658;48.908;9.140;2023-06-10T08:48:03;24.20;99.90
22984;DHT22;11658;48.908;9.140;2023-06-10T08:50:36;24.20;99.90
22984;DHT22;11658;48.908;9.140;2023-06-10T08:53:05;24.20;99.90
22984;DHT22;11658;48.908;9.140;2023-06-10T08:55:33;24.20;99.90
22984;DHT22;11658;48.908;9.140;2023-06-10T08:58:01;24.20;99.90
22984;DHT22;11658;48.908;9.140;2023-06-10T09:00:28;24.20;99.90
22984;DHT22;11658;48.908;9.140;2023-06-10T09:02:55;24.40;99.90
22984;DHT22;11658;48.908;9.140;2023-06-10T09:05:21;24.30;99.90
22984;DHT22;11658;48.908;9.140;2023-06-10T09:07:48;24.50;99.90
22984;DHT22;11658;48.908;9.140;2023-06-10T09:10:14;24.50;99.90
22984;DHT22;11658;48.908;9.140;2023-06-10T09:12:40;24.60;99.90
22984;DHT22;11658;48.908;9.140;2023-06-10T09:15:08;24.60;99.90
22984;DHT22;11658;48.908;9.140;2023-06-10T09:17:34;24.80;99.90
22984;DHT22;11658;48.908;9.140;2023-06-10T09:20:02;25.00;99.90
22984;DHT22;11658;48.908;9.140;2023-06-10T09:22:28;24.80;99.90
22984;DHT22;11658;48.908;9.140;2023-06-10T09:25:04;24.70;99.90
22984;DHT22;11658;48.908;9.140;2023-06-10T09:27:31;24.70;99.90
22984;DHT22;11658;48.908;9.140;2023-06-10T09:29:59;24.90;99.90
22984;DHT22;11658;48.908;9.140;2023-06-10T09:32:25;25.00;99.90
22984;DHT22;11658;48.908;9.140;2023-06-10T09:34:51;25.20;99.90
22984;DHT22;11658;48.908;9.140;2023-06-10T09:37:24;25.20;99.90
22984;DHT22;11658;48.908;9.140;2023-06-10T09:40:06;25.20;99.90
22984;DHT22;11658;48.908;9.140;2023-06-10T09:42:33;25.20;99.90
22984;DHT22;11658;48.908;9.140;2023-06-10T09:44:59;25.10;99.90
22984;DHT22;11658;48.908;9.140;2023-06-10T09:47:25;25.00;99.90
22984;DHT22;11658;48.908;9.140;2023-06-10T09:49:51;25.20;99.90
22984;DHT22;11658;48.908;9.140;2023-06-10T09:52:26;25.30;99.90
22984;DHT22;11658;48.908;9.140;2023-06-10T09:54:53;25.30;99.90
22984;DHT22;11658;48.908;9.140;2023-06-10T09:57:20;25.30;99.90
22984;DHT22;11658;48.908;9.140;2023-06-10T09:59:46;25.40;99.90
22984;DHT22;11658;48.908;9.140;2023-06-10T10:02:15;25.80;99.90
22984;DHT22;11658;48.908;9.140;2023-06-10T10:04:42;26.20;99.90
22984;DHT22;11658;48.908;9.140;2023-06-10T10:07:08;26.50;99.90
22984;DHT22;11658;48.908;9.140;2023-06-10T10:09:36;26.30;99.90
22984;DHT22;11658;48.908;9.140;2023-06-10T10:12:03;26.10;99.90
22984;DHT22;11658;48.908;9.140;2023-06-10T10:14:34;26.00;99.90
22984;DHT22;11658;48.908;9.140;2023-06-10T10:17:01;25.90;99.90
22984;DHT22;11658;48.908;9.140;2023-06-10T10:19:31;25.70;99.90
22984;DHT22;11658;48.908;9.140;2023-06-10T10:22:17;25.70;99.90
22984;DHT22;11658;48.908;9.140;2023-06-10T10:24:50;25.70;99.90
22984;DHT22;11658;48.908;9.140;2023-06-10T10:27:20;25.80;99.90
22984;DHT22;11658;48.908;9.140;2023-06-10T10:29:48;25.70;99.90
22984;DHT22;11658;48.908;9.140;2023-06-10T10:32:16;25.80;99.90
22984;DHT22;11658;48.908;9.140;2023-06-10T10:34:49;25.90;99.90
22984;DHT22;11658;48.908;9.140;2023-06-10T10:37:17;26.00;99.90
22984;DHT22;11658;48.908;9.140;2023-06-10T10:39:45;26.10;99.90
22984;DHT22;11658;48.908;9.140;2023-06-10T10:42:11;26.10;99.90
22984;DHT22;11658;48.908;9.140;2023-06-10T10:44:38;26.50;99.90
22984;DHT22;11658;48.908;9.140;2023-06-10T10:47:08;26.80;99.90
22984;DHT22;11658;48.908;9.140;2023-06-10T10:49:34;27.00;99.90
22984;DHT22;11658;48.908;9.140;2023-06-10T10:52:01;27.40;99.90
22984;DHT22;11658;48.908;9.140;2023-06-10T10:54:34;27.60;99.90
22984;DHT22;11658;48.908;9.140;2023-06-10T10:57:17;27.80;99.90
22984;DHT22;11658;48.908;9.140;2023-06-10T10:59:54;27.90;99.90
22984;DHT22;11658;48.908;9.140;2023-06-10T11:02:35;28.00;99.90
22984;DHT22;11658;48.908;9.140;2023-06-10T11:05:01;27.60;99.90
22984;DHT22;11658;48.908;9.140;2023-06-10T11:07:32;27.40;99.90
22984;DHT22;11658;48.908;9.140;2023-06-10T11:10:05;27.50;99.90
22984;DHT22;11658;48.908;9.140;2023-06-10T11:12:51;27.60;99.90
22984;DHT22;11658;48.908;9.140;2023-06-10T11:15:28;27.40;99.90
22984;DHT22;11658;48.908;9.140;2023-06-10T11:18:25;27.30;99.90
22984;DHT22;11658;48.908;9.140;2023-06-10T11:31:42;26.50;99.90
22984;DHT22;11658;48.908;9.140;2023-06-10T11:34:07;26.70;99.90
22984;DHT22;11658;48.908;9.140;2023-06-10T11:36:36;26.60;99.90
22984;DHT22;11658;48.908;9.140;2023-06-10T11:39:04;26.80;99.90
22984;DHT22;11658;48.908;9.140;2023-06-10T11:41:30;26.90;99.90
22984;DHT22;11658;48.908;9.140;2023-06-10T11:43:59;26.60;99.90
22984;DHT22;11658;48.908;9.140;2023-06-10T11:46:26;26.70;99.90
22984;DHT22;11658;48.908;9.140;2023-06-10T11:49:00;26.60;99.90
22984;DHT22;11658;48.908;9.140;2023-06-10T11:51:27;26.60;99.90
22984;DHT22;11658;48.908;9.140;2023-06-10T11:53:53;26.70;99.90
22984;DHT22;11658;48.908;9.140;2023-06-10T11:56:23;26.60;99.90
22984;DHT22;11658;48.908;9.140;2023-06-10T12:01:25;26.40;99.90
22984;DHT22;11658;48.908;9.140;2023-06-10T12:06:26;26.30;99.90
22984;DHT22;11658;48.908;9.140;2023-06-10T12:08:54;26.50;99.90
22984;DHT22;11658;48.908;9.140;2023-06-10T12:11:20;26.60;99.90
22984;DHT22;11658;48.908;9.140;2023-06-10T12:13:47;26.80;99.90
22984;DHT22;11658;48.908;9.140;2023-06-10T12:16:14;27.00;99.90
22984;DHT22;11658;48.908;9.140;2023-06-10T12:18:43;27.50;99.90
22984;DHT22;11658;48.908;9.140;2023-06-10T12:21:20;27.70;99.90
22984;DHT22;11658;48.908;9.140;2023-06-10T12:24:05;27.30;99.90
22984;DHT22;11658;48.908;9.140;2023-06-10T12:26:42;27.30;99.90
22984;DHT22;11658;48.908;9.140;2023-06-10T12:29:24;27.10;99.90
22984;DHT22;11658;48.908;9.140;2023-06-10T12:34:37;27.50;99.90
22984;DHT22;11658;48.908;9.140;2023-06-10T12:37:05;28.00;99.90
22984;DHT22;11658;48.908;9.140;2023-06-10T12:39:32;28.10;99.90
22984;DHT22;11658;48.908;9.140;2023-06-10T12:41:59;28.10;99.90
22984;DHT22;11658;48.908;9.140;2023-06-10T12:44:32;28.40;99.90
22984;DHT22;11658;48.908;9.140;2023-06-10T12:46:58;28.60;99.90
22984;DHT22;11658;48.908;9.140;2023-06-10T12:49:24;28.70;99.90
22984;DHT22;11658;48.908;9.140;2023-06-10T12:51:51;28.90;99.90
22984;DHT22;11658;48.908;9.140;2023-06-10T12:54:17;29.30;99.70
22984;DHT22;11658;48.908;9.140;2023-06-10T12:56:43;29.10;99.90
22984;DHT22;11658;48.908;9.140;2023-06-10T12:59:09;28.70;99.90
22984;DHT22;11658;48.908;9.140;2023-06-10T13:01:34;28.40;99.90
22984;DHT22;11658;48.908;9.140;2023-06-10T13:04:00;28.40;99.90
22984;DHT22;11658;48.908;9.140;2023-06-10T13:06:25;28.60;99.50
22984;DHT22;11658;48.908;9.140;2023-06-10T13:08:51;28.60;98.40
22984;DHT22;11658;48.908;9.140;2023-06-10T13:11:17;28.60;98.70
22984;DHT22;11658;48.908;9.140;2023-06-10T13:13:42;28.70;99.00
22984;DHT22;11658;48.908;9.140;2023-06-10T13:16:08;28.70;98.60
22984;DHT22;11658;48.908;9.140;2023-06-10T13:18:34;28.70;98.40
22984;DHT22;11658;48.908;9.140;2023-06-10T13:21:05;28.70;98.90
22984;DHT22;11658;48.908;9.140;2023-06-10T13:23:31;28.70;98.40
22984;DHT22;11658;48.908;9.140;2023-06-10T13:25:57;28.50;98.60
22984;DHT22;11658;48.908;9.140;2023-06-10T13:28:23;28.40;98.80
22984;DHT22;11658;48.908;9.140;2023-06-10T13:30:49;28.10;98.70
22984;DHT22;11658;48.908;9.140;2023-06-10T13:33:15;28.20;99.00
22984;DHT22;11658;48.908;9.140;2023-06-10T13:35:40;28.40;99.50
22984;DHT22;11658;48.908;9.140;2023-06-10T13:38:06;28.50;99.90
22984;DHT22;11658;48.908;9.140;2023-06-10T13:40:32;28.50;99.80
22984;DHT22;11658;48.908;9.140;2023-06-10T13:42:58;28.70;99.10
22984;DHT22;11658;48.908;9.140;2023-06-10T13:45:24;28.90;98.60
22984;DHT22;11658;48.908;9.140;2023-06-10T13:47:50;28.90;98.10
22984;DHT22;11658;48.908;9.140;2023-06-10T13:50:16;28.70;97.80
22984;DHT22;11658;48.908;9.140;2023-06-10T13:52:41;28.50;98.60
22984;DHT22;11658;48.908;9.140;2023-06-10T13:55:07;28.50;98.10
22984;DHT22;11658;48.908;9.140;2023-06-10T13:57:33;28.60;98.10
22984;DHT22;11658;48.908;9.140;2023-06-10T13:59:59;28.80;97.50
22984;DHT22;11658;48.908;9.140;2023-06-10T14:02:25;28.80;97.50
22984;DHT22;11658;48.908;9.140;2023-06-10T14:04:51;28.70;97.30
22984;DHT22;11658;48.908;9.140;2023-06-10T14:07:17;28.70;97.20
22984;DHT22;11658;48.908;9.140;2023-06-10T14:09:43;28.80;97.50
22984;DHT22;11658;48.908;9.140;2023-06-10T14:12:09;29.00;96.90
22984;DHT22;11658;48.908;9.140;2023-06-10T14:14:34;29.20;96.50
22984;DHT22;11658;48.908;9.140;2023-06-10T14:17:01;28.90;96.80
22984;DHT22;11658;48.908;9.140;2023-06-10T14:19:28;28.50;97.30
22984;DHT22;11658;48.908;9.140;2023-06-10T14:21:54;28.40;98.00
22984;DHT22;11658;48.908;9.140;2023-06-10T14:24:20;28.40;98.00
22984;DHT22;11658;48.908;9.140;2023-06-10T14:26:46;28.30;97.40
22984;DHT22;11658;48.908;9.140;2023-06-10T14:29:12;28.20;97.40
22984;DHT22;11658;48.908;9.140;2023-06-10T14:31:39;28.20;97.60
22984;DHT22;11658;48.908;9.140;2023-06-10T14:34:05;28.30;97.70
22984;DHT22;11658;48.908;9.140;2023-06-10T14:36:33;28.30;97.70
22984;DHT22;11658;48.908;9.140;2023-06-10T14:38:58;28.50;97.80
22984;DHT22;11658;48.908;9.140;2023-06-10T14:41:24;28.80;97.30
22984;DHT22;11658;48.908;9.140;2023-06-10T14:43:50;28.80;97.70
22984;DHT22;11658;48.908;9.140;2023-06-10T14:46:15;29.10;96.80
22984;DHT22;11658;48.908;9.140;2023-06-10T14:48:41;28.90;95.60
22984;DHT22;11658;48.908;9.140;2023-06-10T14:51:07;28.80;96.20
22984;DHT22;11658;48.908;9.140;2023-06-10T14:53:32;28.60;96.10
22984;DHT22;11658;48.908;9.140;2023-06-10T14:55:58;28.60;96.90
22984;DHT22;11658;48.908;9.140;2023-06-10T14:58:23;29.00;96.80
22984;DHT22;11658;48.908;9.140;2023-06-10T15:00:49;29.20;97.40
22984;DHT22;11658;48.908;9.140;2023-06-10T15:03:15;29.00;96.40
22984;DHT22;11658;48.908;9.140;2023-06-10T15:05:41;28.80;95.90
22984;DHT22;11658;48.908;9.140;2023-06-10T15:08:06;28.50;96.90
22984;DHT22;11658;48.908;9.140;2023-06-10T15:10:33;28.40;97.10
22984;DHT22;11658;48.908;9.140;2023-06-10T15:12:58;28.30;97.30
22984;DHT22;11658;48.908;9.140;2023-06-10T15:15:24;28.40;97.10
22984;DHT22;11658;48.908;9.140;2023-06-10T15:17:53;28.50;97.30
22984;DHT22;11658;48.908;9.140;2023-06-10T15:20:19;28.60;97.20
22984;DHT22;11658;48.908;9.140;2023-06-10T15:22:45;28.70;98.00
22984;DHT22;11658;48.908;9.140;2023-06-10T15:25:11;28.90;97.10
22984;DHT22;11658;48.908;9.140;2023-06-10T15:27:37;29.20;96.90
22984;DHT22;11658;48.908;9.140;2023-06-10T15:30:02;29.10;96.10
22984;DHT22;11658;48.908;9.140;2023-06-10T15:32:28;28.70;96.20
22984;DHT22;11658;48.908;9.140;2023-06-10T15:34:54;28.50;96.70
22984;DHT22;11658;48.908;9.140;2023-06-10T15:37:20;28.40;96.80
22984;DHT22;11658;48.908;9.140;2023-06-10T15:39:46;28.20;97.00
22984;DHT22;11658;48.908;9.140;2023-06-10T15:42:12;28.40;97.50
22984;DHT22;11658;48.908;9.140;2023-06-10T15:44:38;28.50;97.10
22984;DHT22;11658;48.908;9.140;2023-06-10T15:47:03;28.30;97.40
22984;DHT22;11658;48.908;9.140;2023-06-10T15:49:29;28.40;97.50
22984;DHT22;11658;48.908;9.140;2023-06-10T15:51:55;28.60;97.50
22984;DHT22;11658;48.908;9.140;2023-06-10T15:54:20;28.70;97.40
22984;DHT22;11658;48.908;9.140;2023-06-10T15:56:46;28.70;97.20
22984;DHT22;11658;48.908;9.140;2023-06-10T15:59:12;28.90;97.00
22984;DHT22;11658;48.908;9.140;2023-06-10T16:01:37;28.90;96.40
22984;DHT22;11658;48.908;9.140;2023-06-10T16:04:03;28.60;95.90
22984;DHT22;11658;48.908;9.140;2023-06-10T16:06:29;28.50;96.00
22984;DHT22;11658;48.908;9.140;2023-06-10T16:08:55;28.60;96.30
22984;DHT22;11658;48.908;9.140;2023-06-10T16:11:20;28.50;96.30
22984;DHT22;11658;48.908;9.140;2023-06-10T16:13:46;28.50;96.20
22984;DHT22;11658;48.908;9.140;2023-06-10T16:16:12;28.40;96.30
22984;DHT22;11658;48.908;9.140;2023-06-10T16:18:38;28.50;96.70
22984;DHT22;11658;48.908;9.140;2023-06-10T16:21:03;28.50;96.20
22984;DHT22;11658;48.908;9.140;2023-06-10T16:23:29;28.50;96.40
22984;DHT22;11658;48.908;9.140;2023-06-10T16:25:55;28.70;96.60
22984;DHT22;11658;48.908;9.140;2023-06-10T16:28:21;28.90;97.00
22984;DHT22;11658;48.908;9.140;2023-06-10T16:30:46;29.20;96.60
22984;DHT22;11658;48.908;9.140;2023-06-10T16:33:12;29.30;96.70
22984;DHT22;11658;48.908;9.140;2023-06-10T16:35:37;29.30;97.00
22984;DHT22;11658;48.908;9.140;2023-06-10T16:38:03;29.80;96.90
22984;DHT22;11658;48.908;9.140;2023-06-10T16:40:29;30.70;95.30
22984;DHT22;11658;48.908;9.140;2023-06-10T16:42:55;31.50;94.30
22984;DHT22;11658;48.908;9.140;2023-06-10T16:45:20;32.30;93.20
22984;DHT22;11658;48.908;9.140;2023-06-10T16:47:46;32.60;92.20
22984;DHT22;11658;48.908;9.140;2023-06-10T16:50:12;32.00;92.40
22984;DHT22;11658;48.908;9.140;2023-06-10T16:52:37;32.20;91.70
22984;DHT22;11658;48.908;9.140;2023-06-10T16:55:03;32.50;91.20
22984;DHT22;11658;48.908;9.140;2023-06-10T16:57:29;32.60;91.20
22984;DHT22;11658;48.908;9.140;2023-06-10T16:59:54;33.10;90.70
22984;DHT22;11658;48.908;9.140;2023-06-10T17:02:20;34.10;89.50
22984;DHT22;11658;48.908;9.140;2023-06-10T17:04:46;34.00;87.20
22984;DHT22;11658;48.908;9.140;2023-06-10T17:07:11;34.00;87.00
22984;DHT22;11658;48.908;9.140;2023-06-10T17:09:37;33.70;85.80
22984;DHT22;11658;48.908;9.140;2023-06-10T17:12:03;32.70;86.40
22984;DHT22;11658;48.908;9.140;2023-06-10T17:14:28;32.90;87.10
22984;DHT22;11658;48.908;9.140;2023-06-10T17:16:54;33.20;87.40
22984;DHT22;11658;48.908;9.140;2023-06-10T17:19:20;34.10;85.50
22984;DHT22;11658;48.908;9.140;2023-06-10T17:21:46;34.90;83.60
22984;DHT22;11658;48.908;9.140;2023-06-10T17:24:11;34.30;83.40
22984;DHT22;11658;48.908;9.140;2023-06-10T17:26:37;33.40;83.90
22984;DHT22;11658;48.908;9.140;2023-06-10T17:29:03;32.20;85.50
22984;DHT22;11658;48.908;9.140;2023-06-10T17:31:29;31.20;88.00
22984;DHT22;11658;48.908;9.140;2023-06-10T17:33:54;30.40;90.20
22984;DHT22;11658;48.908;9.140;2023-06-10T17:36:20;30.70;90.10
22984;DHT22;11658;48.908;9.140;2023-06-10T17:38:45;31.60;88.70
22984;DHT22;11658;48.908;9.140;2023-06-10T17:41:11;32.30;88.10
22984;DHT22;11658;48.908;9.140;2023-06-10T17:43:36;31.50;88.40
22984;DHT22;11658;48.908;9.140;2023-06-10T17:46:02;31.30;89.80
22984;DHT22;11658;48.908;9.140;2023-06-10T17:48:28;31.10;90.10
22984;DHT22;11658;48.908;9.140;2023-06-10T17:50:53;30.80;90.20
22984;DHT22;11658;48.908;9.140;2023-06-10T17:53:19;30.20;91.00
22984;DHT22;11658;48.908;9.140;2023-06-10T17:55:44;29.50;92.10
22984;DHT22;11658;48.908;9.140;2023-06-10T17:58:10;29.30;92.90
22984;DHT22;11658;48.908;9.140;2023-06-10T18:00:35;29.00;93.70
22984;DHT22;11658;48.908;9.140;2023-06-10T18:03:01;28.60;93.80
22984;DHT22;11658;48.908;9.140;2023-06-10T18:05:27;28.30;95.10
22984;DHT22;11658;48.908;9.140;2023-06-10T18:07:52;27.90;95.30
22984;DHT22;11658;48.908;9.140;2023-06-10T18:10:19;27.60;95.80
22984;DHT22;11658;48.908;9.140;2023-06-10T18:12:45;27.30;96.60
22984;DHT22;11658;48.908;9.140;2023-06-10T18:15:11;27.20;97.10
22984;DHT22;11658;48.908;9.140;2023-06-10T18:17:36;27.00;97.40
22984;DHT22;11658;48.908;9.140;2023-06-10T18:20:03;26.80;98.10
22984;DHT22;11658;48.908;9.140;2023-06-10T18:22:31;26.50;98.30
22984;DHT22;11658;48.908;9.140;2023-06-10T18:25:00;26.40;98.80
22984;DHT22;11658;48.908;9.140;2023-06-10T18:27:31;26.30;99.20
22984;DHT22;11658;48.908;9.140;2023-06-10T18:29:57;26.30;99.30
22984;DHT22;11658;48.908;9.140;2023-06-10T18:32:22;26.20;99.60
22984;DHT22;11658;48.908;9.140;2023-06-10T18:34:48;26.00;99.70
22984;DHT22;11658;48.908;9.140;2023-06-10T18:37:16;25.90;99.90
22984;DHT22;11658;48.908;9.140;2023-06-10T18:39:42;25.70;99.90
22984;DHT22;11658;48.908;9.140;2023-06-10T18:42:08;25.60;99.90
22984;DHT22;11658;48.908;9.140;2023-06-10T18:44:33;25.40;99.90
22984;DHT22;11658;48.908;9.140;2023-06-10T18:47:00;25.30;99.90
22984;DHT22;11658;48.908;9.140;2023-06-10T18:49:26;25.30;99.90
22984;DHT22;11658;48.908;9.140;2023-06-10T18:51:52;25.10;99.90
22984;DHT22;11658;48.908;9.140;2023-06-10T18:54:17;25.00;99.90
22984;DHT22;11658;48.908;9.140;2023-06-10T18:56:43;25.00;99.90
22984;DHT22;11658;48.908;9.140;2023-06-10T18:59:09;24.90;99.90
22984;DHT22;11658;48.908;9.140;2023-06-10T19:01:35;24.90;99.90
22984;DHT22;11658;48.908;9.140;2023-06-10T19:04:00;24.90;99.90
22984;DHT22;11658;48.908;9.140;2023-06-10T19:06:26;24.80;99.90
22984;DHT22;11658;48.908;9.140;2023-06-10T19:08:52;24.70;99.90
22984;DHT22;11658;48.908;9.140;2023-06-10T19:11:17;24.60;99.90
22984;DHT22;11658;48.908;9.140;2023-06-10T19:13:43;24.50;99.90
22984;DHT22;11658;48.908;9.140;2023-06-10T19:16:09;24.40;99.90
22984;DHT22;11658;48.908;9.140;2023-06-10T19:18:35;24.40;99.90
22984;DHT22;11658;48.908;9.140;2023-06-10T19:21:00;24.30;99.90
22984;DHT22;11658;48.908;9.140;2023-06-10T19:23:26;24.30;99.90
22984;DHT22;11658;48.908;9.140;2023-06-10T19:25:51;24.20;99.90
22984;DHT22;11658;48.908;9.140;2023-06-10T19:28:17;24.10;99.90
22984;DHT22;11658;48.908;9.140;2023-06-10T19:30:43;24.00;99.90
22984;DHT22;11658;48.908;9.140;2023-06-10T19:33:09;24.00;99.90
22984;DHT22;11658;48.908;9.140;2023-06-10T19:35:35;23.80;99.90
22984;DHT22;11658;48.908;9.140;2023-06-10T19:38:01;23.70;99.90
22984;DHT22;11658;48.908;9.140;2023-06-10T19:40:26;23.70;99.90
22984;DHT22;11658;48.908;9.140;2023-06-10T19:42:52;23.70;99.90
22984;DHT22;11658;48.908;9.140;2023-06-10T19:45:17;23.60;99.90
22984;DHT22;11658;48.908;9.140;2023-06-10T19:47:43;23.50;99.90
22984;DHT22;11658;48.908;9.140;2023-06-10T19:50:09;23.40;99.90